Omaha, NE (68108)

9:57 AM CDT on October 25, 2014 (GMT -0500)
Midtown (42nd and Center) | Change Station
CLOSE
Current Station
Personal Weather Station
Location: Omaha, NE
Elevation: 1220 ft
Nearby Weather Stations

Elev 1220 ft 41.24 °N, 95.97 °W | Updated 1 second ago

Clear
Clear
57.9 °F
Feels Like 57.9 °F
N
2.0
Wind Variable Wind from NW
Gusts 6.0 mph

Today
High -- | Low -- °F
--% Chance of Precip.
Yesterday
High -- | Low -- °F
Precip. -- in
7:46 AM 6:28 PM
Waxing Crescent, 3% visible
Pressure 30.13 in
Visibility 10.0 miles
Clouds Few 20000 ft
Dew Point 47 °F
Humidity 66%
Rainfall 0.00 in
Snow Depth Not available.
UV 1.2 out of 12
Pollen 2.00 out of 12
Ozone Good
PM2.5 Good
Flu Activity Sporadic
METAR KOMA 251452Z 01005KT 10SM FEW200 12/09 A3013 RMK AO2 SLP202 T01220089 51023

More Conditions Fewer Conditions

Pressure 30.13 in
Visibility 10.0 miles
Clouds Few 20000 ft
Dew Point 47 °F
Humidity 66%
Rainfall 0.00 in
Snow Depth Not available.
UV 1.2 out of 12
Pollen 2.00 out of 12
Ozone Good
PM2.5 Good
Flu Activity Sporadic
METAR KOMA 251452Z 01005KT 10SM FEW200 12/09 A3013 RMK AO2 SLP202 T01220089 51023

More Conditions Fewer Conditions

10-Day Weather Forecast

Almanac

Astronomy

Oct. 25, 2014 Rise Set
Actual Time 7:46 AM CDT 6:28 PM CDT
Civil Twilight 7:18 AM CDT 6:56 PM CDT
Nautical Twilight 6:46 AM CDT 7:28 PM CDT
Astronomical Twilight 6:14 AM CDT 8:00 PM CDT
Moon 9:27 AM CDT 7:51 PM CDT
Length of Visible Light 11h 37m
Length of Day
10h 41m
Tomorrow will be 2m 32s shorter.
Waxing Crescent, 3% of the Moon is Illuminated
Today
Waxing Crescent
Oct 30
First Quarter
Nov 6
Full
Nov 14
Last Quarter
Nov 22
New

Today's Extremes

State Highs State Lows

Community

WunderPhotos

Upload Photos

1,764,861 photos uploaded!

Nearby

Air Quality

  Air Quality AQ Index Pollutant
Yesterday Moderate
PM2.5
Yesterday Good
OZONE
Current Good
PM2.5
Current Good
OZONE
Saturday Good
PM2.5
Saturday Good
OZONE
Saturday Good
CO
Sunday Good
PM2.5
Sunday Good
OZONE
Sunday Good
CO

Snow Depth

Station Depth Elevation
No new snow has been reported.

Earthquake Activity

City Distance Mag. Time & Date
No recent earthquake activity has been reported nearby.
Minimum magnitude displayed is 2.5.

Coastal Water Temperatures

Place Temperature
No Stations Reporting

Nearby Weather Stations